createdAt,value
2022-11-30T00:00:00.588Z,21.7
2022-11-30T00:01:59.704Z,22.3
2022-11-30T00:03:59.547Z,22.2
2022-11-30T00:05:59.576Z,22.0
2022-11-30T00:07:59.588Z,22.2
2022-11-30T00:09:59.498Z,22.1
2022-11-30T00:11:59.510Z,22.0
2022-11-30T00:13:59.658Z,22.0
2022-11-30T00:15:59.589Z,22.0
2022-11-30T00:17:59.594Z,22.1
2022-11-30T00:19:59.486Z,22.1
2022-11-30T00:21:59.637Z,22.0
2022-11-30T00:23:59.563Z,21.9
2022-11-30T00:25:59.513Z,21.8
2022-11-30T00:27:59.562Z,21.9
2022-11-30T00:29:59.503Z,21.9
2022-11-30T00:31:59.553Z,21.8
2022-11-30T00:33:59.578Z,21.5
2022-11-30T00:36:29.645Z,21.5
2022-11-30T00:38:29.491Z,21.5
2022-11-30T00:40:29.546Z,21.8
2022-11-30T00:42:29.559Z,21.5
2022-11-30T00:44:29.823Z,21.2
2022-11-30T00:46:29.611Z,21.3
2022-11-30T00:48:29.578Z,21.3
2022-11-30T00:50:29.511Z,21.4
2022-11-30T00:52:29.585Z,21.1
2022-11-30T00:54:29.556Z,21.1
2022-11-30T00:56:29.520Z,21.0
2022-11-30T00:58:29.525Z,21.0
2022-11-30T01:00:29.561Z,21.0
2022-11-30T01:02:29.645Z,20.5
2022-11-30T01:04:29.527Z,20.8
2022-11-30T01:06:29.528Z,21.0
2022-11-30T01:08:29.570Z,20.8
2022-11-30T01:10:29.531Z,20.5
2022-11-30T01:12:29.532Z,20.4
2022-11-30T01:14:29.524Z,20.6
2022-11-30T01:16:29.572Z,20.4
2022-11-30T01:18:29.595Z,20.5
2022-11-30T01:20:29.570Z,20.5
2022-11-30T01:22:29.632Z,20.6
2022-11-30T01:24:29.529Z,20.8
2022-11-30T01:26:29.654Z,20.9
2022-11-30T01:28:29.597Z,20.9
2022-11-30T01:30:30.036Z,21.0
2022-11-30T01:32:29.592Z,21.0
2022-11-30T01:34:29.615Z,21.3
2022-11-30T01:36:29.545Z,21.1
2022-11-30T01:38:29.768Z,20.9
2022-11-30T01:40:29.548Z,20.8
2022-11-30T01:42:29.585Z,20.8
2022-11-30T01:44:29.578Z,20.6
2022-11-30T01:46:29.637Z,20.7
2022-11-30T01:48:29.576Z,20.5
2022-11-30T01:50:29.628Z,20.3
2022-11-30T01:52:29.600Z,20.3
2022-11-30T01:54:29.629Z,20.1
2022-11-30T01:56:29.610Z,20.3
2022-11-30T01:58:29.580Z,20.1
2022-11-30T02:00:29.589Z,19.9
2022-11-30T02:02:29.671Z,20.1
2022-11-30T02:04:29.581Z,19.8
2022-11-30T02:06:29.634Z,19.8
2022-11-30T02:08:30.302Z,19.8
2022-11-30T02:10:29.594Z,19.9
2022-11-30T02:12:29.635Z,19.9
2022-11-30T02:14:29.596Z,19.6
2022-11-30T02:16:29.569Z,19.6
2022-11-30T02:18:29.611Z,19.5
2022-11-30T02:20:29.648Z,19.4
2022-11-30T02:22:29.566Z,19.5
2022-11-30T02:24:29.592Z,19.3
2022-11-30T02:26:29.675Z,19.0
2022-11-30T02:28:29.615Z,18.9
2022-11-30T02:30:59.624Z,18.8
2022-11-30T02:32:59.555Z,19.0
2022-11-30T02:34:59.697Z,18.8
2022-11-30T02:36:59.561Z,18.7
2022-11-30T02:38:59.628Z,19.0
2022-11-30T02:40:59.595Z,19.1
2022-11-30T02:42:59.651Z,19.2
2022-11-30T02:44:59.670Z,19.5
2022-11-30T02:46:59.621Z,19.5
2022-11-30T02:48:59.613Z,19.6
2022-11-30T02:50:59.723Z,19.9
2022-11-30T02:52:59.635Z,19.9
2022-11-30T02:54:59.594Z,20.0
2022-11-30T02:56:59.590Z,19.8
2022-11-30T02:58:59.650Z,20.0
2022-11-30T03:00:59.700Z,20.1
2022-11-30T03:02:59.691Z,20.2
2022-11-30T03:04:59.622Z,20.3
2022-11-30T03:06:59.756Z,20.4
2022-11-30T03:08:59.604Z,20.5
2022-11-30T03:10:59.634Z,20.4
2022-11-30T03:12:59.649Z,20.5
2022-11-30T03:14:59.641Z,20.8
2022-11-30T03:16:59.647Z,20.9
2022-11-30T03:18:59.590Z,20.7
2022-11-30T03:20:59.640Z,20.6
2022-11-30T03:22:59.644Z,20.8
2022-11-30T03:24:59.634Z,20.9
2022-11-30T03:26:59.592Z,21.5
2022-11-30T03:28:59.610Z,21.5
2022-11-30T03:30:59.748Z,21.3
2022-11-30T03:32:59.623Z,21.4
2022-11-30T03:34:59.593Z,21.6
2022-11-30T03:36:59.644Z,21.8
2022-11-30T03:38:59.702Z,21.5
2022-11-30T03:40:59.617Z,21.4
2022-11-30T03:42:59.632Z,21.3
2022-11-30T03:44:59.625Z,21.2
2022-11-30T03:46:59.647Z,21.2
2022-11-30T03:48:59.626Z,21.1
2022-11-30T03:50:59.700Z,21.1
2022-11-30T03:52:59.634Z,21.4
2022-11-30T03:54:59.623Z,21.4
2022-11-30T03:56:59.641Z,21.5
2022-11-30T03:58:59.700Z,21.2
2022-11-30T04:00:59.631Z,21.3
2022-11-30T04:02:59.732Z,21.3
2022-11-30T04:04:59.674Z,21.0
2022-11-30T04:06:59.729Z,20.9
2022-11-30T04:08:59.665Z,21.1
2022-11-30T04:10:59.622Z,21.2
2022-11-30T04:12:59.682Z,21.2
2022-11-30T04:14:59.645Z,20.8
2022-11-30T04:16:59.651Z,20.6
2022-11-30T04:18:59.643Z,20.7
2022-11-30T04:21:29.705Z,20.6
2022-11-30T04:23:29.663Z,20.5
2022-11-30T04:25:29.674Z,20.5
2022-11-30T04:27:29.624Z,20.4
2022-11-30T04:29:29.643Z,20.2
2022-11-30T04:31:29.672Z,20.0
2022-11-30T04:33:29.691Z,19.7
2022-11-30T04:35:29.676Z,19.6
2022-11-30T04:37:29.672Z,19.7
2022-11-30T04:39:29.686Z,19.8
2022-11-30T04:41:29.634Z,19.9
2022-11-30T04:43:29.640Z,20.3
2022-11-30T04:45:35.081Z,20.3
2022-11-30T04:47:29.681Z,20.2
2022-11-30T04:49:29.699Z,20.3
2022-11-30T04:51:29.764Z,20.0
2022-11-30T04:53:29.706Z,20.0
2022-11-30T04:55:29.628Z,20.1
2022-11-30T04:57:29.812Z,20.1
2022-11-30T04:59:29.660Z,20.2
2022-11-30T05:01:29.699Z,20.1
2022-11-30T05:03:29.649Z,20.3
2022-11-30T05:05:29.715Z,20.3
2022-11-30T05:07:29.823Z,20.0
2022-11-30T05:09:29.681Z,19.8
2022-11-30T05:11:29.744Z,19.6
2022-11-30T05:13:29.727Z,19.9
2022-11-30T05:15:30.310Z,20.1
2022-11-30T05:17:29.702Z,20.3
2022-11-30T05:19:29.667Z,20.2
2022-11-30T05:21:29.653Z,20.2
2022-11-30T05:23:29.715Z,20.0
2022-11-30T05:25:29.818Z,20.0
2022-11-30T05:27:29.694Z,20.0
2022-11-30T05:29:29.977Z,20.2
2022-11-30T05:31:29.801Z,20.5
2022-11-30T05:33:29.828Z,20.5
2022-11-30T05:35:29.787Z,20.7
2022-11-30T05:37:29.767Z,20.5
2022-11-30T05:39:29.926Z,20.3
2022-11-30T05:41:29.878Z,20.0
2022-11-30T05:43:29.715Z,19.5
2022-11-30T05:45:29.876Z,19.5
2022-11-30T05:47:29.689Z,19.6
2022-11-30T05:49:29.746Z,19.6
2022-11-30T05:51:29.705Z,19.9
2022-11-30T05:53:29.676Z,19.8
2022-11-30T05:55:29.901Z,19.4
2022-11-30T05:57:29.784Z,19.4
2022-11-30T05:59:29.804Z,19.4
2022-11-30T06:03:52.696Z,19.5
2022-11-30T06:05:52.634Z,19.7
2022-11-30T06:07:52.750Z,19.9
2022-11-30T06:09:52.727Z,20.3
2022-11-30T06:11:52.718Z,20.8
2022-11-30T06:13:52.647Z,20.6
2022-11-30T06:15:52.678Z,20.5
2022-11-30T06:17:52.681Z,20.1
2022-11-30T06:19:52.726Z,20.0
2022-11-30T06:21:52.731Z,20.3
2022-11-30T06:23:52.698Z,20.5
2022-11-30T06:25:52.691Z,20.7
2022-11-30T06:27:52.690Z,20.8
2022-11-30T06:29:52.639Z,21.0
2022-11-30T06:31:52.690Z,20.6
2022-11-30T06:33:52.607Z,20.8
2022-11-30T06:35:52.639Z,20.5
2022-11-30T06:37:52.905Z,20.6
2022-11-30T06:40:07.824Z,21.0
2022-11-30T06:41:54.618Z,21.3
2022-11-30T06:43:52.627Z,21.3
2022-11-30T06:45:52.632Z,21.3
2022-11-30T06:47:52.690Z,21.5
2022-11-30T06:49:52.675Z,21.8
2022-11-30T06:51:52.602Z,21.9
2022-11-30T06:53:52.627Z,21.8
2022-11-30T06:55:52.613Z,21.9
2022-11-30T06:57:52.605Z,21.8
2022-11-30T06:59:52.690Z,21.9
2022-11-30T07:01:52.639Z,21.9
2022-11-30T07:03:52.671Z,21.8
2022-11-30T07:05:52.629Z,21.9
2022-11-30T07:07:52.798Z,21.6
2022-11-30T07:09:52.644Z,21.3
2022-11-30T07:11:52.696Z,20.9
2022-11-30T07:13:52.656Z,21.1
2022-11-30T07:15:52.663Z,21.2
2022-11-30T07:17:52.690Z,21.4
2022-11-30T07:19:52.680Z,21.6
2022-11-30T07:21:52.674Z,21.5
2022-11-30T07:23:56.664Z,21.2
2022-11-30T07:25:52.666Z,21.0
2022-11-30T07:27:52.650Z,21.0
2022-11-30T07:29:52.701Z,20.7
2022-11-30T07:31:52.685Z,20.8
2022-11-30T07:33:52.639Z,20.7
2022-11-30T07:35:52.693Z,20.8
2022-11-30T07:38:22.691Z,20.4
2022-11-30T07:40:22.650Z,20.1
2022-11-30T07:42:22.754Z,20.2
2022-11-30T07:44:22.678Z,20.6
2022-11-30T07:46:22.697Z,20.6
2022-11-30T07:48:22.796Z,20.0
2022-11-30T07:50:22.852Z,19.8
2022-11-30T07:52:22.720Z,19.7
2022-11-30T07:54:22.692Z,19.6
2022-11-30T07:56:22.645Z,19.6
2022-11-30T07:58:22.657Z,19.9
2022-11-30T08:00:22.669Z,19.9
2022-11-30T08:02:22.790Z,19.7
2022-11-30T08:04:22.906Z,19.7
2022-11-30T08:06:22.663Z,19.9
2022-11-30T08:08:22.700Z,20.1
2022-11-30T08:10:22.652Z,19.8
2022-11-30T08:12:22.683Z,19.7
2022-11-30T08:14:22.665Z,19.6
2022-11-30T08:16:22.730Z,19.5
2022-11-30T08:18:22.789Z,19.7
2022-11-30T08:20:22.681Z,19.6
2022-11-30T08:22:22.711Z,19.6
2022-11-30T08:24:22.705Z,19.6
2022-11-30T08:26:22.704Z,19.7
2022-11-30T08:28:22.665Z,19.6
2022-11-30T08:30:27.677Z,19.5
2022-11-30T08:32:22.703Z,20.1
2022-11-30T08:34:22.701Z,20.0
2022-11-30T08:36:22.716Z,20.1
2022-11-30T08:38:22.701Z,20.3
2022-11-30T08:40:22.653Z,20.8
2022-11-30T08:42:22.678Z,20.8
2022-11-30T08:44:22.719Z,20.3
2022-11-30T08:48:22.691Z,20.7
2022-11-30T08:50:22.738Z,20.5
2022-11-30T08:52:22.739Z,20.9
2022-11-30T08:54:22.733Z,21.0
2022-11-30T08:56:22.685Z,21.1
2022-11-30T08:58:22.707Z,20.9
2022-11-30T09:00:22.732Z,20.6
2022-11-30T09:02:22.753Z,20.8
2022-11-30T09:04:22.709Z,20.6
2022-11-30T09:06:22.697Z,20.4
2022-11-30T09:08:22.762Z,20.4
2022-11-30T09:10:22.740Z,20.6
2022-11-30T09:12:22.700Z,21.0
2022-11-30T09:14:22.734Z,20.9
2022-11-30T09:16:22.762Z,20.7
2022-11-30T09:18:22.719Z,20.8
2022-11-30T09:20:22.716Z,20.8
2022-11-30T09:22:22.727Z,20.9
2022-11-30T09:24:22.756Z,20.9
2022-11-30T09:26:22.742Z,20.7
2022-11-30T09:28:22.761Z,20.7
2022-11-30T09:30:52.872Z,20.7
2022-11-30T09:32:52.811Z,20.3
2022-11-30T09:34:53.131Z,20.4
2022-11-30T09:36:52.715Z,20.5
2022-11-30T09:38:52.737Z,20.4
2022-11-30T09:40:52.805Z,20.0
2022-11-30T09:42:52.758Z,20.0
2022-11-30T09:44:52.726Z,20.0
2022-11-30T09:46:52.757Z,20.0
2022-11-30T09:48:52.900Z,19.6
2022-11-30T09:50:52.705Z,20.0
2022-11-30T09:52:52.761Z,19.8
2022-11-30T09:54:52.710Z,19.6
2022-11-30T09:56:52.764Z,19.7
2022-11-30T09:58:52.761Z,19.8
2022-11-30T10:00:52.742Z,20.0
2022-11-30T10:02:53.157Z,20.0
2022-11-30T10:04:52.766Z,20.1
2022-11-30T10:06:52.752Z,20.1
2022-11-30T10:08:52.716Z,20.0
2022-11-30T10:10:52.788Z,20.0
2022-11-30T10:12:52.800Z,19.9
2022-11-30T10:14:55.968Z,19.8
2022-11-30T10:16:52.757Z,20.2
2022-11-30T10:18:52.727Z,20.4
2022-11-30T10:20:52.748Z,20.3
2022-11-30T10:22:52.747Z,20.2
2022-11-30T10:24:52.770Z,20.3
2022-11-30T10:26:52.730Z,20.4
2022-11-30T10:28:52.794Z,20.6
2022-11-30T10:30:52.942Z,20.6
2022-11-30T10:32:52.768Z,21.0
2022-11-30T10:34:52.790Z,20.7
2022-11-30T10:36:52.731Z,20.5
2022-11-30T10:38:52.811Z,20.5
2022-11-30T10:40:52.805Z,20.5
2022-11-30T10:42:52.763Z,20.5
2022-11-30T10:44:52.743Z,20.5
2022-11-30T10:46:52.781Z,20.8
2022-11-30T10:48:52.766Z,20.9
2022-11-30T10:50:52.802Z,20.6
2022-11-30T10:52:52.761Z,20.5
2022-11-30T10:54:52.751Z,20.7
2022-11-30T10:56:52.761Z,20.6
2022-11-30T10:58:52.788Z,20.6
2022-11-30T11:00:52.781Z,20.9
2022-11-30T11:02:52.792Z,20.8
2022-11-30T11:04:52.765Z,20.7
2022-11-30T11:06:52.842Z,20.9
2022-11-30T11:08:52.733Z,20.8
2022-11-30T11:10:52.770Z,20.8
2022-11-30T11:12:52.762Z,20.9
2022-11-30T11:14:52.764Z,21.0
2022-11-30T11:16:52.800Z,20.7
2022-11-30T11:18:52.812Z,20.4
2022-11-30T11:21:22.810Z,20.5
2022-11-30T11:23:22.789Z,20.4
2022-11-30T11:25:22.755Z,20.5
2022-11-30T11:27:22.838Z,20.4
2022-11-30T11:29:22.761Z,20.5
2022-11-30T11:31:22.813Z,20.1
2022-11-30T11:33:22.827Z,20.1
2022-11-30T11:35:22.777Z,20.2
2022-11-30T11:37:22.834Z,20.4
2022-11-30T11:39:22.795Z,20.6
2022-11-30T11:41:22.788Z,20.5
2022-11-30T11:43:22.791Z,20.5
2022-11-30T11:45:22.774Z,20.3
2022-11-30T11:47:23.847Z,20.5
2022-11-30T11:49:22.810Z,20.5
2022-11-30T11:51:22.830Z,20.5
2022-11-30T11:53:23.020Z,20.5
2022-11-30T11:55:22.811Z,20.5
2022-11-30T11:57:22.836Z,20.5
2022-11-30T11:59:24.806Z,20.3
2022-11-30T12:03:22.840Z,20.6
2022-11-30T12:05:22.790Z,20.7
2022-11-30T12:07:22.916Z,20.8
2022-11-30T12:09:22.786Z,20.7
2022-11-30T12:11:22.872Z,20.7
2022-11-30T12:13:22.836Z,20.7
2022-11-30T12:15:22.858Z,20.8
2022-11-30T12:17:22.808Z,21.0
2022-11-30T12:19:22.807Z,21.1
2022-11-30T12:21:22.856Z,20.8
2022-11-30T12:23:22.797Z,21.0
2022-11-30T12:25:22.791Z,21.0
2022-11-30T12:27:22.870Z,21.0
2022-11-30T12:29:22.825Z,20.8
2022-11-30T12:31:22.871Z,20.8
2022-11-30T12:33:25.119Z,20.8
2022-11-30T12:35:22.844Z,20.9
2022-11-30T12:37:22.823Z,21.0
2022-11-30T12:39:22.886Z,21.0
2022-11-30T12:41:22.919Z,21.0
2022-11-30T12:43:22.881Z,21.0
2022-11-30T12:45:22.879Z,21.0
2022-11-30T12:47:22.849Z,20.7
2022-11-30T12:49:22.803Z,20.8
2022-11-30T12:51:28.010Z,20.8
2022-11-30T12:53:22.910Z,20.7
2022-11-30T12:57:22.954Z,20.7
2022-11-30T12:59:22.946Z,20.7
2022-11-30T13:03:22.925Z,20.8
2022-11-30T13:07:23.031Z,20.9
2022-11-30T13:11:31.330Z,20.8
2022-11-30T13:13:31.349Z,20.6
2022-11-30T13:15:31.372Z,20.4
2022-11-30T13:17:31.339Z,20.1
2022-11-30T13:19:31.329Z,20.2
2022-11-30T13:21:31.360Z,20.1
2022-11-30T13:23:31.285Z,19.9
2022-11-30T13:26:06.241Z,19.9
2022-11-30T13:27:31.334Z,19.9
2022-11-30T13:29:31.360Z,20.0
2022-11-30T13:31:31.463Z,20.0
2022-11-30T13:33:31.317Z,19.9
2022-11-30T13:35:31.308Z,19.7
2022-11-30T13:37:31.339Z,19.4
2022-11-30T13:39:31.370Z,19.4
2022-11-30T13:41:31.378Z,19.4
2022-11-30T13:44:01.357Z,19.3
2022-11-30T13:46:01.329Z,19.3
2022-11-30T13:48:01.326Z,19.5
2022-11-30T13:50:01.331Z,19.3
2022-11-30T13:52:22.106Z,19.3
2022-11-30T13:54:18.268Z,19.8
2022-11-30T13:56:01.317Z,19.7
2022-11-30T13:58:01.327Z,19.6
2022-11-30T14:00:01.506Z,19.8
2022-11-30T14:02:01.426Z,19.7
2022-11-30T14:04:01.379Z,19.4
2022-11-30T14:06:01.332Z,19.3
2022-11-30T14:08:01.411Z,19.1
2022-11-30T14:10:01.392Z,19.1
2022-11-30T14:12:01.456Z,19.0
2022-11-30T14:14:01.332Z,18.8
2022-11-30T14:16:01.491Z,18.8
2022-11-30T14:18:01.362Z,18.9
2022-11-30T14:20:01.331Z,18.8
2022-11-30T14:22:01.398Z,18.8
2022-11-30T14:24:01.335Z,18.9
2022-11-30T14:26:05.027Z,19.1
2022-11-30T14:28:01.420Z,19.2
2022-11-30T14:30:01.375Z,19.1
2022-11-30T14:32:01.378Z,19.5
2022-11-30T14:34:01.380Z,19.5
2022-11-30T14:36:01.338Z,19.8
2022-11-30T14:38:01.384Z,19.8
2022-11-30T14:40:01.459Z,19.7
2022-11-30T14:42:01.431Z,20.1
2022-11-30T14:44:01.402Z,20.1
2022-11-30T14:46:05.029Z,20.5
2022-11-30T14:48:01.378Z,20.4
2022-11-30T14:50:01.355Z,20.5
2022-11-30T14:52:01.363Z,20.4
2022-11-30T14:54:01.387Z,20.0
2022-11-30T14:56:01.341Z,20.0
2022-11-30T14:58:06.758Z,20.3
2022-11-30T15:00:01.394Z,20.0
2022-11-30T15:02:01.400Z,19.9
2022-11-30T15:04:01.382Z,20.0
2022-11-30T15:06:01.376Z,20.3
2022-11-30T15:08:01.549Z,20.1
2022-11-30T15:10:01.450Z,20.3
2022-11-30T15:12:01.500Z,20.5
2022-11-30T15:14:01.364Z,21.0
2022-11-30T15:16:01.412Z,20.9
2022-11-30T15:18:01.344Z,21.1
2022-11-30T15:20:01.398Z,21.1
2022-11-30T15:22:01.390Z,21.2
2022-11-30T15:24:01.413Z,21.3
2022-11-30T15:26:01.374Z,21.2
2022-11-30T15:28:01.549Z,21.0
2022-11-30T15:30:01.432Z,21.0
2022-11-30T15:32:01.474Z,21.0
2022-11-30T15:34:31.432Z,21.1
2022-11-30T15:36:33.420Z,20.7
2022-11-30T15:38:31.496Z,20.7
2022-11-30T15:40:31.572Z,20.4
2022-11-30T15:42:31.533Z,20.5
2022-11-30T15:44:31.395Z,20.4
2022-11-30T15:46:31.494Z,20.4
2022-11-30T15:48:31.409Z,20.4
2022-11-30T15:50:31.436Z,20.4
2022-11-30T15:52:31.399Z,20.4
2022-11-30T15:54:31.490Z,20.5
2022-11-30T15:56:31.453Z,20.5
2022-11-30T15:58:31.383Z,20.6
2022-11-30T16:00:31.428Z,20.7
2022-11-30T16:02:31.493Z,20.7
2022-11-30T16:04:31.562Z,20.5
2022-11-30T16:06:31.485Z,20.5
2022-11-30T16:08:31.417Z,20.0
2022-11-30T16:10:31.382Z,20.2
2022-11-30T16:12:31.414Z,20.1
2022-11-30T16:14:31.508Z,19.9
2022-11-30T16:16:31.540Z,20.0
2022-11-30T16:18:31.388Z,19.9
2022-11-30T16:20:31.483Z,20.0
2022-11-30T16:22:31.419Z,20.2
2022-11-30T16:24:31.572Z,20.2
2022-11-30T16:28:31.409Z,20.5
2022-11-30T16:30:31.481Z,20.5
2022-11-30T16:32:31.413Z,20.4
2022-11-30T16:34:31.482Z,20.2
2022-11-30T16:36:31.496Z,20.5
2022-11-30T16:38:31.551Z,20.5
2022-11-30T16:40:36.888Z,20.4
2022-11-30T16:42:31.445Z,20.3
2022-11-30T16:44:31.442Z,20.2
2022-11-30T16:46:31.467Z,20.0
2022-11-30T16:48:31.462Z,19.7
2022-11-30T16:50:31.425Z,19.5
2022-11-30T16:52:31.444Z,19.3
2022-11-30T16:54:31.557Z,19.2
2022-11-30T16:56:31.478Z,19.4
2022-11-30T16:58:31.549Z,19.5
2022-11-30T17:00:31.430Z,19.5
2022-11-30T17:02:31.562Z,19.6
2022-11-30T17:04:31.598Z,19.7
2022-11-30T17:06:31.507Z,19.8
2022-11-30T17:08:31.481Z,20.3
2022-11-30T17:10:31.453Z,20.1
2022-11-30T17:12:31.402Z,20.1
2022-11-30T17:14:31.479Z,20.2
2022-11-30T17:16:31.566Z,20.3
2022-11-30T17:18:31.470Z,20.3
2022-11-30T17:20:31.568Z,20.1
2022-11-30T17:22:31.519Z,20.0
2022-11-30T17:25:01.748Z,20.0
2022-11-30T17:27:01.567Z,19.8
2022-11-30T17:29:01.491Z,19.8
2022-11-30T17:31:01.619Z,19.6
2022-11-30T17:33:01.558Z,19.6
2022-11-30T17:35:01.550Z,19.7
2022-11-30T17:37:01.509Z,19.6
2022-11-30T17:39:01.596Z,19.8
2022-11-30T17:41:01.514Z,20.2
2022-11-30T17:43:01.579Z,20.5
2022-11-30T17:45:01.553Z,20.8
2022-11-30T17:47:01.510Z,21.0
2022-11-30T17:49:01.528Z,21.2
2022-11-30T17:51:01.575Z,21.3
2022-11-30T17:53:01.584Z,21.5
2022-11-30T17:55:01.548Z,21.5
2022-11-30T17:57:01.614Z,21.4
2022-11-30T17:59:01.616Z,21.4
2022-11-30T18:01:01.569Z,21.3
2022-11-30T18:03:01.587Z,21.2
2022-11-30T18:05:03.178Z,21.1
2022-11-30T18:07:01.549Z,21.0
2022-11-30T18:09:01.544Z,20.9
2022-11-30T18:11:01.606Z,20.9
2022-11-30T18:13:01.611Z,20.9
2022-11-30T18:15:01.524Z,20.9
2022-11-30T18:17:01.583Z,20.6
2022-11-30T18:19:01.543Z,20.4
2022-11-30T18:21:01.555Z,20.6
2022-11-30T18:23:01.569Z,20.5
2022-11-30T18:25:01.610Z,20.3
2022-11-30T18:27:01.680Z,20.4
2022-11-30T18:29:01.463Z,20.3
2022-11-30T18:31:01.557Z,20.9
2022-11-30T18:33:01.649Z,20.8
2022-11-30T18:35:01.641Z,20.9
2022-11-30T18:37:01.580Z,20.9
2022-11-30T18:39:01.577Z,20.8
2022-11-30T18:41:01.603Z,20.5
2022-11-30T18:43:01.489Z,20.2
2022-11-30T18:45:01.519Z,19.9
2022-11-30T18:47:01.573Z,19.8
2022-11-30T18:49:01.621Z,19.9
2022-11-30T18:51:01.690Z,20.0
2022-11-30T18:53:01.592Z,20.1
2022-11-30T18:55:03.559Z,20.0
2022-11-30T18:57:01.602Z,20.0
2022-11-30T18:59:01.484Z,19.6
2022-11-30T19:01:01.628Z,19.7
2022-11-30T19:03:01.587Z,19.6
2022-11-30T19:05:01.465Z,19.9
2022-11-30T19:07:01.582Z,19.9
2022-11-30T19:09:01.572Z,19.7
2022-11-30T19:11:05.005Z,20.1
2022-11-30T19:13:01.641Z,20.0
2022-11-30T19:15:01.576Z,20.1
2022-11-30T19:17:31.555Z,20.0
2022-11-30T19:19:31.486Z,20.1
2022-11-30T19:21:31.608Z,20.0
2022-11-30T19:23:31.600Z,20.2
2022-11-30T19:25:31.582Z,20.4
2022-11-30T19:27:31.650Z,20.3
2022-11-30T19:29:31.524Z,20.1
2022-11-30T19:31:31.696Z,20.0
2022-11-30T19:33:31.609Z,19.7
2022-11-30T19:35:31.609Z,19.9
2022-11-30T19:37:31.579Z,19.9
2022-11-30T19:39:31.698Z,20.0
2022-11-30T19:41:31.711Z,20.0
2022-11-30T19:43:31.558Z,20.0
2022-11-30T19:45:31.553Z,20.1
2022-11-30T19:47:31.627Z,20.2
2022-11-30T19:49:31.617Z,20.1
2022-11-30T19:51:31.618Z,19.9
2022-11-30T19:53:31.607Z,20.0
2022-11-30T19:55:31.710Z,20.2
2022-11-30T19:57:31.566Z,20.2
2022-11-30T19:59:31.678Z,20.4
2022-11-30T20:01:31.782Z,20.6
2022-11-30T20:03:31.621Z,20.6
2022-11-30T20:05:31.586Z,20.3
2022-11-30T20:07:31.742Z,20.2
2022-11-30T20:09:31.575Z,20.2
2022-11-30T20:11:31.612Z,20.0
2022-11-30T20:13:43.227Z,19.9
2022-11-30T20:15:43.296Z,19.6
2022-11-30T20:17:43.158Z,19.7
2022-11-30T20:19:43.144Z,19.6
2022-11-30T20:21:43.189Z,19.5
2022-11-30T20:23:43.279Z,19.5
2022-11-30T20:25:43.149Z,19.6
2022-11-30T20:27:43.138Z,19.5
2022-11-30T20:29:43.163Z,19.6
2022-11-30T20:31:43.197Z,19.5
2022-11-30T20:33:43.161Z,19.5
2022-11-30T20:35:43.307Z,19.5
2022-11-30T20:37:43.194Z,19.8
2022-11-30T20:39:46.024Z,19.9
2022-11-30T20:41:43.158Z,20.0
2022-11-30T20:43:43.228Z,20.1
2022-11-30T20:45:43.220Z,20.0
2022-11-30T20:47:43.299Z,20.0
2022-11-30T20:49:43.179Z,20.0
2022-11-30T20:51:43.178Z,19.9
2022-11-30T20:53:43.296Z,20.2
2022-11-30T20:55:43.175Z,20.2
2022-11-30T20:57:43.205Z,20.2
2022-11-30T20:59:43.175Z,20.0
2022-11-30T21:01:43.286Z,19.8
2022-11-30T21:03:43.209Z,19.7
2022-11-30T21:05:43.271Z,19.8
2022-11-30T21:07:43.278Z,19.8
2022-11-30T21:09:43.175Z,19.7
2022-11-30T21:11:43.161Z,19.9
2022-11-30T21:13:43.142Z,20.0
2022-11-30T21:15:43.210Z,20.4
2022-11-30T21:17:43.178Z,20.3
2022-11-30T21:19:43.189Z,20.1
2022-11-30T21:21:43.197Z,20.5
2022-11-30T21:23:43.286Z,20.1
2022-11-30T21:25:43.201Z,19.8
2022-11-30T21:27:43.217Z,19.8
2022-11-30T21:29:43.228Z,19.8
2022-11-30T21:31:43.289Z,20.0
2022-11-30T21:33:48.922Z,19.7
2022-11-30T21:35:43.271Z,19.5
2022-11-30T21:37:43.190Z,19.4
2022-11-30T21:39:43.196Z,19.3
2022-11-30T21:41:43.185Z,19.3
2022-11-30T21:43:43.227Z,19.0
2022-11-30T21:45:43.197Z,18.8
2022-11-30T21:47:43.196Z,18.6
2022-11-30T21:49:43.311Z,18.7
2022-11-30T21:51:43.213Z,18.7
2022-11-30T21:53:43.226Z,18.3
2022-11-30T21:56:13.269Z,18.2
2022-11-30T21:58:13.186Z,18.3
2022-11-30T22:00:13.208Z,18.3
2022-11-30T22:02:13.181Z,18.7
2022-11-30T22:04:13.269Z,18.6
2022-11-30T22:06:13.313Z,18.9
2022-11-30T22:08:13.252Z,18.7
2022-11-30T22:10:13.215Z,18.7
2022-11-30T22:12:13.189Z,18.9
2022-11-30T22:14:13.240Z,19.0
2022-11-30T22:16:13.231Z,18.8
2022-11-30T22:18:13.190Z,18.8
2022-11-30T22:20:13.201Z,18.6
2022-11-30T22:22:13.253Z,18.6
2022-11-30T22:24:13.254Z,19.0
2022-11-30T22:26:13.263Z,19.0
2022-11-30T22:28:13.315Z,19.2
2022-11-30T22:30:13.249Z,19.2
2022-11-30T22:32:13.303Z,19.1
2022-11-30T22:34:13.236Z,19.1
2022-11-30T22:36:13.200Z,19.2
2022-11-30T22:38:13.183Z,19.2
2022-11-30T22:40:13.204Z,18.9
2022-11-30T22:42:13.261Z,19.1
2022-11-30T22:44:13.310Z,19.3
2022-11-30T22:46:13.882Z,19.3
2022-11-30T22:48:13.268Z,19.3
2022-11-30T22:50:13.247Z,19.4
2022-11-30T22:52:13.258Z,19.4
2022-11-30T22:54:13.249Z,19.4
2022-11-30T22:56:13.320Z,19.5
2022-11-30T22:58:13.238Z,19.4
2022-11-30T23:00:13.207Z,19.6
2022-11-30T23:02:13.326Z,19.4
2022-11-30T23:04:13.258Z,19.5
2022-11-30T23:06:13.235Z,19.3
2022-11-30T23:08:13.316Z,19.6
2022-11-30T23:10:13.261Z,19.4
2022-11-30T23:12:24.828Z,19.4
2022-11-30T23:14:13.205Z,19.2
2022-11-30T23:16:13.330Z,19.3
2022-11-30T23:18:13.280Z,19.3
2022-11-30T23:20:13.246Z,19.7
2022-11-30T23:22:13.267Z,19.7
2022-11-30T23:24:13.267Z,19.6
2022-11-30T23:26:13.261Z,19.6
2022-11-30T23:28:13.286Z,19.2
2022-11-30T23:30:13.211Z,19.4
2022-11-30T23:32:13.280Z,19.4
2022-11-30T23:34:13.262Z,19.3
2022-11-30T23:36:13.230Z,19.0
2022-11-30T23:38:13.311Z,18.9
2022-11-30T23:40:13.327Z,19.0
2022-11-30T23:42:13.289Z,19.2
2022-11-30T23:44:13.374Z,19.1
2022-11-30T23:46:13.282Z,19.3
2022-11-30T23:48:43.240Z,19.2
2022-11-30T23:50:43.276Z,19.5
2022-11-30T23:52:43.278Z,19.6
2022-11-30T23:54:43.240Z,19.7
2022-11-30T23:56:43.246Z,19.7
2022-11-30T23:58:43.261Z,20.0
